createdAt,value
2022-08-05T00:00:16.131Z,20.87
2022-08-05T00:02:50.504Z,20.86
2022-08-05T00:06:02.682Z,20.79
2022-08-05T00:08:30.874Z,20.79
2022-08-05T00:10:56.481Z,20.73
2022-08-05T00:13:38.376Z,20.75
2022-08-05T00:16:09.552Z,20.70
2022-08-05T00:18:44.760Z,20.72
2022-08-05T00:21:12.729Z,20.72
2022-08-05T00:23:46.493Z,20.68
2022-08-05T00:26:20.713Z,20.69
2022-08-05T00:28:49.318Z,20.69
2022-08-05T00:31:16.442Z,20.70
2022-08-05T00:34:53.413Z,20.69
2022-08-05T00:37:13.204Z,20.63
2022-08-05T00:39:57.265Z,20.65
2022-08-05T00:42:35.425Z,20.63
2022-08-05T00:45:08.553Z,20.66
2022-08-05T00:47:57.002Z,20.32
2022-08-05T00:50:25.863Z,20.59
2022-08-05T00:52:53.519Z,20.61
2022-08-05T00:55:22.614Z,20.63
2022-08-05T00:57:58.200Z,20.56
2022-08-05T01:00:32.983Z,20.52
2022-08-05T01:03:02.689Z,20.52
2022-08-05T01:05:35.059Z,20.54
2022-08-05T01:08:42.110Z,20.53
2022-08-05T01:10:52.964Z,20.55
2022-08-05T01:13:58.846Z,20.53
2022-08-05T01:16:49.335Z,20.54
2022-08-05T01:20:01.963Z,20.55
2022-08-05T01:22:57.248Z,20.55
2022-08-05T01:25:40.681Z,20.57
2022-08-05T01:28:23.303Z,20.56
2022-08-05T01:31:03.494Z,20.54
2022-08-05T01:33:38.238Z,20.54
2022-08-05T01:36:16.168Z,20.53
2022-08-05T01:38:46.097Z,20.22
2022-08-05T01:41:21.606Z,20.49
2022-08-05T01:43:51.130Z,20.49
2022-08-05T01:46:41.346Z,20.41
2022-08-05T01:49:23.858Z,20.49
2022-08-05T01:51:58.292Z,20.48
2022-08-05T01:54:49.428Z,20.48
2022-08-05T01:58:30.011Z,20.42
2022-08-05T02:00:13.904Z,20.40
2022-08-05T02:02:54.434Z,20.34
2022-08-05T02:05:28.652Z,20.32
2022-08-05T02:08:00.961Z,20.21
2022-08-05T02:10:35.215Z,20.16
2022-08-05T02:13:16.378Z,20.20
2022-08-05T02:16:05.775Z,20.21
2022-08-05T02:18:41.807Z,20.15
2022-08-05T02:21:16.472Z,20.14
2022-08-05T02:23:46.262Z,20.04
2022-08-05T02:26:17.171Z,20.05
2022-08-05T02:28:48.240Z,19.99
2022-08-05T02:31:23.650Z,19.93
2022-08-05T02:34:03.803Z,19.66
2022-08-05T02:36:35.573Z,19.88
2022-08-05T02:39:04.994Z,19.87
2022-08-05T02:41:57.556Z,19.85
2022-08-05T02:44:24.968Z,19.86
2022-08-05T02:46:58.868Z,19.88
2022-08-05T02:49:43.466Z,19.83
2022-08-05T02:52:29.474Z,19.90
2022-08-05T02:55:01.921Z,19.93
2022-08-05T02:58:20.503Z,19.93
2022-08-05T03:00:20.194Z,19.91
2022-08-05T03:02:51.629Z,19.90
2022-08-05T03:05:21.948Z,19.87
2022-08-05T03:08:08.760Z,19.83
2022-08-05T03:10:36.243Z,19.79
2022-08-05T03:13:17.100Z,19.65
2022-08-05T03:15:48.060Z,19.78
2022-08-05T03:18:18.469Z,19.77
2022-08-05T03:20:51.319Z,19.76
2022-08-05T03:23:18.321Z,19.75
2022-08-05T03:26:04.895Z,19.75
2022-08-05T03:28:41.770Z,19.69
2022-08-05T03:31:09.107Z,19.75
2022-08-05T03:33:50.986Z,19.72
2022-08-05T03:36:18.339Z,19.71
2022-08-05T03:38:57.986Z,19.72
2022-08-05T03:41:24.554Z,19.73
2022-08-05T03:44:09.179Z,19.79
2022-08-05T03:46:38.116Z,19.77
2022-08-05T03:49:04.649Z,19.78
2022-08-05T03:52:49.414Z,19.64
2022-08-05T03:55:49.852Z,19.75
2022-08-05T03:57:42.381Z,19.75
2022-08-05T04:00:15.867Z,19.71
2022-08-05T04:02:57.697Z,19.69
2022-08-05T04:05:33.935Z,19.67
2022-08-05T04:08:29.652Z,19.54
2022-08-05T04:10:54.955Z,19.57
2022-08-05T04:13:22.011Z,19.50
2022-08-05T04:16:03.263Z,19.43
2022-08-05T04:18:32.302Z,19.45
2022-08-05T04:21:02.136Z,19.41
2022-08-05T04:24:05.694Z,19.33
2022-08-05T04:26:21.429Z,19.35
2022-08-05T04:28:51.046Z,19.29
2022-08-05T04:31:18.392Z,19.33
2022-08-05T04:34:18.751Z,19.32
2022-08-05T04:36:45.152Z,19.29
2022-08-05T04:39:12.956Z,19.27
2022-08-05T04:41:39.626Z,19.33
2022-08-05T04:44:09.518Z,19.31
2022-08-05T04:46:37.021Z,19.28
2022-08-05T04:49:14.617Z,19.28
2022-08-05T04:51:42.452Z,19.22
2022-08-05T04:54:10.366Z,19.26
2022-08-05T04:56:38.673Z,19.25
2022-08-05T04:59:24.308Z,19.26
2022-08-05T05:02:07.373Z,19.26
2022-08-05T05:04:35.420Z,19.27
2022-08-05T05:07:05.198Z,19.24
2022-08-05T05:09:39.975Z,19.24
2022-08-05T05:12:12.046Z,19.22
2022-08-05T05:14:54.891Z,19.25
2022-08-05T05:17:55.670Z,19.29
2022-08-05T05:20:14.883Z,19.39
2022-08-05T05:22:47.934Z,19.52
2022-08-05T05:25:17.549Z,19.58
2022-08-05T05:27:48.597Z,19.57
2022-08-05T05:30:31.443Z,19.32
2022-08-05T05:33:09.121Z,19.39
2022-08-05T05:35:45.790Z,19.22
2022-08-05T05:38:14.000Z,19.21
2022-08-05T05:40:49.855Z,19.15
2022-08-05T05:43:57.597Z,19.04
2022-08-05T05:46:17.579Z,19.07
2022-08-05T05:48:48.702Z,19.04
2022-08-05T05:51:27.701Z,19.20
2022-08-05T05:53:59.013Z,19.18
2022-08-05T05:56:34.759Z,19.24
2022-08-05T05:59:07.549Z,19.18
2022-08-05T06:01:37.396Z,19.28
2022-08-05T06:04:14.716Z,19.36
2022-08-05T06:06:47.522Z,19.41
2022-08-05T06:09:16.624Z,19.41
2022-08-05T06:11:59.516Z,19.40
2022-08-05T06:14:29.419Z,19.42
2022-08-05T06:16:56.999Z,19.46
2022-08-05T06:19:33.032Z,19.46
2022-08-05T06:22:02.531Z,19.51
2022-08-05T06:24:32.712Z,19.52
2022-08-05T06:27:01.868Z,19.61
2022-08-05T06:29:48.901Z,19.74
2022-08-05T06:32:25.146Z,20.46
2022-08-05T06:34:56.311Z,21.99
2022-08-05T06:37:56.182Z,22.28
2022-08-05T06:40:14.121Z,23.53
2022-08-05T06:42:48.161Z,23.24
2022-08-05T06:45:21.153Z,23.99
2022-08-05T06:48:36.386Z,24.55
2022-08-05T06:50:55.285Z,23.61
2022-08-05T06:53:22.459Z,22.82
2022-08-05T06:55:51.833Z,22.39
2022-08-05T06:58:30.048Z,22.13
2022-08-05T07:01:03.717Z,21.95
2022-08-05T07:03:32.704Z,21.65
2022-08-05T07:06:05.625Z,21.42
2022-08-05T07:08:48.050Z,21.27
2022-08-05T07:11:22.129Z,21.35
2022-08-05T07:14:15.649Z,21.47
2022-08-05T07:17:58.903Z,21.74
2022-08-05T07:22:32.965Z,21.91
2022-08-05T07:25:22.561Z,21.75
2022-08-05T07:27:58.151Z,21.59
2022-08-05T07:30:32.195Z,21.58
2022-08-05T07:33:05.403Z,21.60
2022-08-05T07:36:02.654Z,21.71
2022-08-05T07:38:31.977Z,21.73
2022-08-05T07:42:07.480Z,22.68
2022-08-05T07:43:55.166Z,23.08
2022-08-05T07:46:26.068Z,22.75
2022-08-05T07:49:04.225Z,22.64
2022-08-05T07:51:48.744Z,22.73
2022-08-05T07:54:31.147Z,22.80
2022-08-05T07:57:17.765Z,23.45
2022-08-05T07:59:49.189Z,24.62
2022-08-05T08:02:18.568Z,24.44
2022-08-05T08:04:47.446Z,23.66
2022-08-05T08:07:15.066Z,23.30
2022-08-05T08:09:42.314Z,23.08
2022-08-05T08:12:30.578Z,22.96
2022-08-05T08:15:02.686Z,22.89
2022-08-05T08:17:35.439Z,22.96
2022-08-05T08:20:22.150Z,23.01
2022-08-05T08:22:55.652Z,23.55
2022-08-05T08:25:27.101Z,24.49
2022-08-05T08:28:18.810Z,24.37
2022-08-05T08:30:59.761Z,24.09
2022-08-05T08:33:27.592Z,23.90
2022-08-05T08:36:18.421Z,23.68
2022-08-05T08:38:53.074Z,24.21
2022-08-05T08:41:22.240Z,24.77
2022-08-05T08:45:23.212Z,24.60
2022-08-05T08:46:45.162Z,24.02
2022-08-05T08:50:22.566Z,23.94
2022-08-05T08:52:17.852Z,23.91
2022-08-05T08:54:47.987Z,23.55
2022-08-05T08:57:14.924Z,23.00
2022-08-05T08:59:47.214Z,22.63
2022-08-05T09:02:19.463Z,22.40
2022-08-05T09:05:15.910Z,22.27
2022-08-05T09:07:55.815Z,22.23
2022-08-05T09:10:27.207Z,22.78
2022-08-05T09:12:55.514Z,24.03
2022-08-05T09:15:22.845Z,23.78
2022-08-05T09:17:52.886Z,23.52
2022-08-05T09:20:36.778Z,23.68
2022-08-05T09:23:19.028Z,23.74
2022-08-05T09:26:00.020Z,23.68
2022-08-05T09:28:33.445Z,23.34
2022-08-05T09:31:23.511Z,23.20
2022-08-05T09:34:01.100Z,24.56
2022-08-05T09:36:56.085Z,25.24
2022-08-05T09:39:42.017Z,25.52
2022-08-05T09:42:23.299Z,25.64
2022-08-05T09:44:56.529Z,25.42
2022-08-05T09:47:48.360Z,25.97
2022-08-05T09:50:18.241Z,26.48
2022-08-05T09:53:03.303Z,26.65
2022-08-05T09:55:58.277Z,26.14
2022-08-05T09:58:23.306Z,26.23
2022-08-05T10:01:13.521Z,26.43
2022-08-05T10:04:00.323Z,26.66
2022-08-05T10:06:28.029Z,26.69
2022-08-05T10:08:55.632Z,26.73
2022-08-05T10:11:22.939Z,26.59
2022-08-05T10:13:54.705Z,26.58
2022-08-05T10:16:29.114Z,26.86
2022-08-05T10:18:57.103Z,26.78
2022-08-05T10:21:24.228Z,26.67
2022-08-05T10:23:59.297Z,26.42
2022-08-05T10:26:32.441Z,26.30
2022-08-05T10:28:59.837Z,26.25
2022-08-05T10:32:55.447Z,26.44
2022-08-05T10:34:16.974Z,26.37
2022-08-05T10:36:44.521Z,25.96
2022-08-05T10:39:24.491Z,26.15
2022-08-05T10:42:18.586Z,26.49
2022-08-05T10:44:50.896Z,26.53
2022-08-05T10:47:27.015Z,26.69
2022-08-05T10:50:31.629Z,26.95
2022-08-05T10:53:01.105Z,26.78
2022-08-05T10:55:30.563Z,27.06
2022-08-05T10:58:14.966Z,27.36
2022-08-05T11:00:47.463Z,27.30
2022-08-05T11:03:24.776Z,27.32
2022-08-05T11:06:15.474Z,27.24
2022-08-05T11:09:17.381Z,27.11
2022-08-05T11:11:53.268Z,26.94
2022-08-05T11:14:57.844Z,26.75
2022-08-05T11:18:07.312Z,26.35
2022-08-05T11:20:46.185Z,26.14
2022-08-05T11:24:04.857Z,25.97
2022-08-05T11:26:43.337Z,25.63
2022-08-05T11:29:40.258Z,25.36
2022-08-05T11:32:27.615Z,25.17
2022-08-05T11:34:57.917Z,25.08
2022-08-05T11:38:36.952Z,25.46
2022-08-05T11:41:34.367Z,25.49
2022-08-05T11:44:40.453Z,25.67
2022-08-05T11:47:11.132Z,25.65
2022-08-05T11:49:51.181Z,25.53
2022-08-05T11:52:29.737Z,25.26
2022-08-05T11:55:07.291Z,25.14
2022-08-05T11:58:08.457Z,24.97
2022-08-05T12:00:31.339Z,24.99
2022-08-05T12:02:58.049Z,25.08
2022-08-05T12:05:32.223Z,24.88
2022-08-05T12:08:10.994Z,24.89
2022-08-05T12:10:45.801Z,25.02
2022-08-05T12:13:18.621Z,25.02
2022-08-05T12:15:55.903Z,24.87
2022-08-05T12:18:33.868Z,25.04
2022-08-05T12:21:12.482Z,24.90
2022-08-05T12:23:43.124Z,24.70
2022-08-05T12:26:10.169Z,24.64
2022-08-05T12:28:38.095Z,24.72
2022-08-05T12:31:05.540Z,24.92
2022-08-05T12:33:36.252Z,25.25
2022-08-05T12:36:08.155Z,25.18
2022-08-05T12:38:41.619Z,25.21
2022-08-05T12:41:16.333Z,25.02
2022-08-05T12:43:57.062Z,25.41
2022-08-05T12:46:29.336Z,25.63
2022-08-05T12:49:13.750Z,25.61
2022-08-05T12:52:12.389Z,25.67
2022-08-05T12:54:44.433Z,25.41
2022-08-05T12:57:13.172Z,25.34
2022-08-05T13:01:58.298Z,25.46
2022-08-05T13:02:40.186Z,25.46
2022-08-05T13:05:08.357Z,25.22
2022-08-05T13:07:59.267Z,25.22
2022-08-05T13:10:27.079Z,25.13
2022-08-05T13:12:58.592Z,25.09
2022-08-05T13:15:41.066Z,24.95
2022-08-05T13:18:19.607Z,24.96
2022-08-05T13:20:49.798Z,24.92
2022-08-05T13:23:18.016Z,25.04
2022-08-05T13:25:52.470Z,25.11
2022-08-05T13:28:26.039Z,25.15
2022-08-05T13:30:57.361Z,25.06
2022-08-05T13:34:21.355Z,25.03
2022-08-05T13:36:14.474Z,25.07
2022-08-05T13:38:42.512Z,24.78
2022-08-05T13:41:12.640Z,25.06
2022-08-05T13:43:45.341Z,24.98
2022-08-05T13:46:37.656Z,25.10
2022-08-05T13:49:11.773Z,25.33
2022-08-05T13:51:41.401Z,25.36
2022-08-05T13:54:11.805Z,25.08
2022-08-05T13:56:39.809Z,24.97
2022-08-05T13:59:19.501Z,24.92
2022-08-05T14:01:57.489Z,24.92
2022-08-05T14:04:51.454Z,24.88
2022-08-05T14:07:56.510Z,24.52
2022-08-05T14:10:08.690Z,24.28
2022-08-05T14:12:35.863Z,24.51
2022-08-05T14:15:06.022Z,24.50
2022-08-05T14:17:50.009Z,24.53
2022-08-05T14:20:17.565Z,24.56
2022-08-05T14:22:50.107Z,24.73
2022-08-05T14:25:21.586Z,24.72
2022-08-05T14:27:49.764Z,24.77
2022-08-05T14:30:20.284Z,24.55
2022-08-05T14:32:48.940Z,24.29
2022-08-05T14:35:16.313Z,24.08
2022-08-05T14:37:52.167Z,24.00
2022-08-05T14:40:21.738Z,23.88
2022-08-05T14:42:51.342Z,23.99
2022-08-05T14:45:18.758Z,23.95
2022-08-05T14:48:03.644Z,24.13
2022-08-05T14:50:33.185Z,24.19
2022-08-05T14:53:06.848Z,24.39
2022-08-05T14:55:39.407Z,24.21
2022-08-05T14:58:11.334Z,24.16
2022-08-05T15:00:57.948Z,23.88
2022-08-05T15:03:33.151Z,24.00
2022-08-05T15:06:07.371Z,23.94
2022-08-05T15:08:59.260Z,23.92
2022-08-05T15:11:50.968Z,23.97
2022-08-05T15:14:34.320Z,23.98
2022-08-05T15:17:04.792Z,24.04
2022-08-05T15:19:32.593Z,23.77
2022-08-05T15:22:01.305Z,23.93
2022-08-05T15:24:29.041Z,24.13
2022-08-05T15:26:58.230Z,24.26
2022-08-05T15:29:30.161Z,24.28
2022-08-05T15:32:02.279Z,24.22
2022-08-05T15:34:32.470Z,23.94
2022-08-05T15:37:06.454Z,23.63
2022-08-05T15:40:59.098Z,23.40
2022-08-05T15:42:53.705Z,23.28
2022-08-05T15:45:18.669Z,23.20
2022-08-05T15:47:49.780Z,23.27
2022-08-05T15:50:21.046Z,23.44
2022-08-05T15:52:54.970Z,23.65
2022-08-05T15:55:24.457Z,23.84
2022-08-05T15:57:52.203Z,23.79
2022-08-05T16:00:26.220Z,23.68
2022-08-05T16:02:59.754Z,23.55
2022-08-05T16:05:28.394Z,23.41
2022-08-05T16:07:55.368Z,23.36
2022-08-05T16:10:25.477Z,23.25
2022-08-05T16:12:56.065Z,23.17
2022-08-05T16:15:23.269Z,23.18
2022-08-05T16:17:57.733Z,23.04
2022-08-05T16:20:25.449Z,23.02
2022-08-05T16:22:52.154Z,23.00
2022-08-05T16:25:18.820Z,22.89
2022-08-05T16:27:59.607Z,22.82
2022-08-05T16:30:32.285Z,22.77
2022-08-05T16:33:00.552Z,22.72
2022-08-05T16:35:33.709Z,22.80
2022-08-05T16:38:23.774Z,22.81
2022-08-05T16:40:59.514Z,22.66
2022-08-05T16:43:33.062Z,22.80
2022-08-05T16:46:06.811Z,22.88
2022-08-05T16:48:38.580Z,22.87
2022-08-05T16:51:09.956Z,22.76
2022-08-05T16:54:05.211Z,22.75
2022-08-05T16:56:26.105Z,22.68
2022-08-05T16:58:52.995Z,22.54
2022-08-05T17:01:20.212Z,22.49
2022-08-05T17:03:47.462Z,22.37
2022-08-05T17:06:16.650Z,22.34
2022-08-05T17:08:52.817Z,22.44
2022-08-05T17:11:26.090Z,22.40
2022-08-05T17:14:05.751Z,22.50
2022-08-05T17:16:37.823Z,22.66
2022-08-05T17:19:07.846Z,22.77
2022-08-05T17:21:39.803Z,22.80
2022-08-05T17:24:19.368Z,22.72
2022-08-05T17:26:58.505Z,22.35
2022-08-05T17:29:33.813Z,22.86
2022-08-05T17:32:11.664Z,22.96
2022-08-05T17:34:44.776Z,22.69
2022-08-05T17:37:40.864Z,22.46
2022-08-05T17:40:02.399Z,21.99
2022-08-05T17:42:32.064Z,21.76
2022-08-05T17:45:00.266Z,21.58
2022-08-05T17:47:36.814Z,21.48
2022-08-05T17:50:10.925Z,21.37
2022-08-05T17:52:52.607Z,21.02
2022-08-05T17:55:19.607Z,21.19
2022-08-05T17:57:50.213Z,21.06
2022-08-05T18:00:18.563Z,20.98
2022-08-05T18:02:46.785Z,20.95
2022-08-05T18:05:13.753Z,20.84
2022-08-05T18:07:44.521Z,20.73
2022-08-05T18:10:11.819Z,20.69
2022-08-05T18:12:49.004Z,20.56
2022-08-05T18:15:15.775Z,20.35
2022-08-05T18:18:00.903Z,20.51
2022-08-05T18:20:31.740Z,20.35
2022-08-05T18:23:09.217Z,20.35
2022-08-05T18:25:39.050Z,20.26
2022-08-05T18:28:09.505Z,20.18
2022-08-05T18:30:39.118Z,19.93
2022-08-05T18:33:07.430Z,20.09
2022-08-05T18:36:01.270Z,20.07
2022-08-05T18:38:26.174Z,20.40
2022-08-05T18:41:57.002Z,20.28
2022-08-05T18:43:43.214Z,19.97
2022-08-05T18:46:15.713Z,19.82
2022-08-05T18:48:47.941Z,19.40
2022-08-05T18:52:04.358Z,19.61
2022-08-05T18:54:28.456Z,19.46
2022-08-05T18:57:01.361Z,19.37
2022-08-05T18:59:43.895Z,19.34
2022-08-05T19:02:26.834Z,19.24
2022-08-05T19:06:05.969Z,19.09
2022-08-05T19:07:55.197Z,19.00
2022-08-05T19:10:26.554Z,18.91
2022-08-05T19:12:55.929Z,18.87
2022-08-05T19:15:58.677Z,18.81
2022-08-05T19:18:21.775Z,18.71
2022-08-05T19:20:52.188Z,18.63
2022-08-05T19:24:03.878Z,18.57
2022-08-05T19:26:08.446Z,18.49
2022-08-05T19:28:38.110Z,18.43
2022-08-05T19:31:08.514Z,18.37
2022-08-05T19:33:36.815Z,18.30
2022-08-05T19:36:07.011Z,18.24
2022-08-05T19:38:36.594Z,18.21
2022-08-05T19:41:07.068Z,18.14
2022-08-05T19:44:05.375Z,18.10
2022-08-05T19:46:30.882Z,18.02
2022-08-05T19:49:03.219Z,17.98
2022-08-05T19:52:05.890Z,17.88
2022-08-05T19:54:31.233Z,17.84
2022-08-05T19:57:06.553Z,17.77
2022-08-05T19:59:56.073Z,17.75
2022-08-05T20:02:27.034Z,17.69
2022-08-05T20:04:58.892Z,17.65
2022-08-05T20:07:48.237Z,17.38
2022-08-05T20:10:14.774Z,17.56
2022-08-05T20:12:46.298Z,17.51
2022-08-05T20:15:22.950Z,17.45
2022-08-05T20:18:10.193Z,17.29
2022-08-05T20:20:57.467Z,17.35
2022-08-05T20:23:40.148Z,17.32
2022-08-05T20:26:16.184Z,17.25
2022-08-05T20:28:51.444Z,17.21
2022-08-05T20:31:28.268Z,17.15
2022-08-05T20:34:03.821Z,17.10
2022-08-05T20:36:33.261Z,17.08
2022-08-05T20:38:59.872Z,17.06
2022-08-05T20:41:44.266Z,16.98
2022-08-05T20:44:30.677Z,16.94
2022-08-05T20:47:03.436Z,16.94
2022-08-05T20:49:37.811Z,16.89
2022-08-05T20:52:07.011Z,16.85
2022-08-05T20:54:55.297Z,16.75
2022-08-05T20:57:41.974Z,16.67
2022-08-05T21:00:40.235Z,16.74
2022-08-05T21:03:01.308Z,16.68
2022-08-05T21:05:47.937Z,16.66
2022-08-05T21:08:18.291Z,16.61
2022-08-05T21:10:48.872Z,16.59
2022-08-05T21:13:20.267Z,16.48
2022-08-05T21:15:55.174Z,16.49
2022-08-05T21:18:23.350Z,16.47
2022-08-05T21:20:50.130Z,16.43
2022-08-05T21:23:16.708Z,16.38
2022-08-05T21:25:44.773Z,16.36
2022-08-05T21:28:12.119Z,16.32
2022-08-05T21:30:40.021Z,16.24
2022-08-05T21:33:11.283Z,16.27
2022-08-05T21:35:58.466Z,16.21
2022-08-05T21:38:26.386Z,16.17
2022-08-05T21:40:53.041Z,16.15
2022-08-05T21:43:24.645Z,16.13
2022-08-05T21:45:57.360Z,16.05
2022-08-05T21:48:26.660Z,16.05
2022-08-05T21:50:54.527Z,15.97
2022-08-05T21:53:21.557Z,15.95
2022-08-05T21:56:06.398Z,15.95
2022-08-05T21:58:57.232Z,15.88
2022-08-05T22:01:25.677Z,15.85
2022-08-05T22:03:53.582Z,15.74
2022-08-05T22:06:22.987Z,15.82
2022-08-05T22:09:01.861Z,15.78
2022-08-05T22:11:43.062Z,15.73
2022-08-05T22:14:34.553Z,15.20
2022-08-05T22:17:01.505Z,15.67
2022-08-05T22:20:01.158Z,15.66
2022-08-05T22:22:17.134Z,15.56
2022-08-05T22:25:20.897Z,15.59
2022-08-05T22:28:10.974Z,15.52
2022-08-05T22:30:55.436Z,15.48
2022-08-05T22:33:56.727Z,15.48
2022-08-05T22:36:10.697Z,15.38
2022-08-05T22:38:41.553Z,15.43
2022-08-05T22:41:10.113Z,15.40
2022-08-05T22:43:38.308Z,15.39
2022-08-05T22:46:13.237Z,15.35
2022-08-05T22:48:50.166Z,15.30
2022-08-05T22:51:23.092Z,15.31
2022-08-05T22:54:03.793Z,15.14
2022-08-05T22:56:31.433Z,15.30
2022-08-05T22:59:04.191Z,15.09
2022-08-05T23:02:04.147Z,15.27
2022-08-05T23:04:34.485Z,15.25
2022-08-05T23:07:01.447Z,15.21
2022-08-05T23:09:58.456Z,15.18
2022-08-05T23:12:17.848Z,15.17
2022-08-05T23:14:44.849Z,15.17
2022-08-05T23:17:24.401Z,15.19
2022-08-05T23:20:02.700Z,14.92
2022-08-05T23:22:29.734Z,15.00
2022-08-05T23:24:57.689Z,15.04
2022-08-05T23:27:24.267Z,15.06
2022-08-05T23:30:00.832Z,14.99
2022-08-05T23:32:28.468Z,14.99
2022-08-05T23:34:55.914Z,14.97
2022-08-05T23:37:22.820Z,14.94
2022-08-05T23:39:53.844Z,14.85
2022-08-05T23:42:23.260Z,14.87
2022-08-05T23:44:54.416Z,14.80
2022-08-05T23:47:21.126Z,14.81
2022-08-05T23:49:52.113Z,14.74
2022-08-05T23:52:27.599Z,14.73
2022-08-05T23:55:00.533Z,14.62
2022-08-05T23:57:29.937Z,14.63
